Time;durP1;ratioP1;P1;durP2;ratioP2;P2;SDS_P1;SDS_P2;PMS_P1;PMS_P2;Temp;Humidity;BMP_temperature;BMP_pressure;BME280_temperature;BME280_humidity;BME280_pressure;Samples;Min_cycle;Max_cycle;Signal;HPM_P1;HPM_P2
2022/09/25 00:00:24;;;;;;;0.55;0.30;;;13.50;99.90;;;;;;5048138;28;20545;-62
2022/09/25 00:02:50;;;;;;;0.00;0.00;;;13.50;99.90;;;;;;5050234;28;20231;-61
2022/09/25 00:05:15;;;;;;;0.03;0.03;;;13.50;99.90;;;;;;5051355;28;20178;-62
2022/09/25 00:07:41;;;;;;;0.10;0.10;;;13.50;99.90;;;;;;5050333;28;20214;-61
2022/09/25 00:10:07;;;;;;;0.47;0.47;;;13.50;99.90;;;;;;5043965;28;20186;-62
2022/09/25 00:12:32;;;;;;;0.00;0.00;;;13.50;99.90;;;;;;5044051;28;20584;-62
2022/09/25 00:14:58;;;;;;;0.00;0.00;;;13.50;99.90;;;;;;5044626;28;20177;-62
2022/09/25 00:17:24;;;;;;;0.00;0.00;;;13.60;99.90;;;;;;5035861;28;20213;-62
2022/09/25 00:19:50;;;;;;;0.03;0.03;;;13.60;99.90;;;;;;5043061;28;20204;-62
2022/09/25 00:22:17;;;;;;;0.10;0.10;;;13.60;99.90;;;;;;5047712;28;20177;-62
2022/09/25 00:24:42;;;;;;;0.28;0.28;;;13.60;99.90;;;;;;5041376;28;20204;-62
2022/09/25 00:27:08;;;;;;;0.03;0.03;;;13.60;99.90;;;;;;5047459;28;20677;-62
2022/09/25 00:29:36;;;;;;;0.32;0.10;;;13.60;99.90;;;;;;5041388;28;20240;-61
2022/09/25 00:32:02;;;;;;;0.10;0.10;;;13.50;99.90;;;;;;5049924;28;20174;-61
2022/09/25 00:34:28;;;;;;;0.50;0.50;;;13.50;99.90;;;;;;5045814;28;20189;-62
2022/09/25 00:36:53;;;;;;;0.10;0.10;;;13.50;99.90;;;;;;5046631;28;20644;-62
2022/09/25 00:39:19;;;;;;;0.98;0.25;;;13.50;99.90;;;;;;5036851;28;20641;-62
2022/09/25 00:41:45;;;;;;;0.57;0.38;;;13.50;99.90;;;;;;5045258;28;20225;-62
2022/09/25 00:44:41;;;;;;;0.00;0.00;;;13.40;99.90;;;;;;5035008;28;20205;-62
2022/09/25 00:47:09;;;;;;;0.10;0.10;;;13.40;99.90;;;;;;5036418;28;20211;-62
2022/09/25 00:49:35;;;;;;;0.10;0.10;;;13.40;99.90;;;;;;5044291;28;20648;-62
2022/09/25 00:52:05;;;;;;;0.00;0.00;;;13.40;99.90;;;;;;5037812;28;20181;-61
2022/09/25 00:54:35;;;;;;;0.03;0.03;;;13.30;99.90;;;;;;5042028;28;20668;-62
2022/09/25 00:57:04;;;;;;;0.03;0.03;;;13.40;99.90;;;;;;5035424;28;20190;-62
2022/09/25 00:59:36;;;;;;;0.22;0.22;;;13.40;99.90;;;;;;5034272;28;20268;-62
2022/09/25 01:02:02;;;;;;;0.00;0.00;;;13.40;99.90;;;;;;5048756;28;20703;-62
2022/09/25 01:04:32;;;;;;;0.00;0.00;;;13.40;99.90;;;;;;5046629;28;20229;-62
2022/09/25 01:06:58;;;;;;;0.00;0.00;;;13.50;99.90;;;;;;5049911;28;20268;-62
2022/09/25 01:09:24;;;;;;;0.00;0.00;;;13.40;99.90;;;;;;5026965;28;20254;-61
2022/09/25 01:11:50;;;;;;;0.10;0.10;;;13.40;99.90;;;;;;5038389;28;20201;-62
2022/09/25 01:14:16;;;;;;;0.32;0.32;;;13.40;99.90;;;;;;5043518;28;20188;-62
2022/09/25 01:17:03;;;;;;;0.32;0.32;;;13.40;99.90;;;;;;5042109;28;20185;-62
2022/09/25 01:20:09;;;;;;;0.00;0.00;;;13.40;99.90;;;;;;5035642;28;20546;-62
2022/09/25 01:22:52;;;;;;;0.22;0.22;;;13.40;99.90;;;;;;5040923;28;20582;-61
2022/09/25 01:25:23;;;;;;;0.00;0.00;;;13.40;99.90;;;;;;5038181;28;20178;-62
2022/09/25 01:28:08;;;;;;;0.00;0.00;;;13.40;99.90;;;;;;5048882;28;20553;-62
2022/09/25 01:30:40;;;;;;;0.15;0.08;;;13.40;99.90;;;;;;5043933;28;20220;-62
2022/09/25 01:33:47;;;;;;;0.30;0.30;;;13.30;99.90;;;;;;5025414;28;20179;-62
2022/09/25 01:36:27;;;;;;;0.00;0.00;;;13.40;99.90;;;;;;5034876;28;20193;-62
2022/09/25 01:39:03;;;;;;;0.50;0.08;;;13.30;99.90;;;;;;5052375;28;20596;-62
2022/09/25 01:41:43;;;;;;;0.00;0.00;;;13.40;99.90;;;;;;5038538;28;20529;-62
2022/09/25 01:44:16;;;;;;;0.03;0.03;;;13.40;99.90;;;;;;5046299;28;20173;-61
2022/09/25 01:46:48;;;;;;;0.00;0.00;;;13.40;99.90;;;;;;5037922;28;20173;-62
2022/09/25 01:49:34;;;;;;;0.10;0.10;;;13.40;99.90;;;;;;5044984;28;20222;-62
2022/09/25 01:52:05;;;;;;;0.10;0.10;;;13.50;99.90;;;;;;5041887;28;20595;-61
2022/09/25 01:54:43;;;;;;;0.43;0.43;;;13.40;99.90;;;;;;5040121;28;20196;-62
2022/09/25 01:57:20;;;;;;;0.00;0.00;;;13.40;99.90;;;;;;5041116;28;20185;-61
2022/09/25 01:59:51;;;;;;;0.70;0.70;;;13.40;99.90;;;;;;5035452;28;20609;-62
2022/09/25 02:02:23;;;;;;;0.08;0.08;;;13.30;99.90;;;;;;5047848;28;20223;-62
2022/09/25 02:04:53;;;;;;;0.10;0.10;;;13.30;99.90;;;;;;5051162;28;20193;-62
2022/09/25 02:07:23;;;;;;;0.28;0.28;;;13.40;99.90;;;;;;5043021;28;20174;-62
2022/09/25 02:09:52;;;;;;;0.00;0.00;;;13.40;99.90;;;;;;5035190;28;20210;-62
2022/09/25 02:12:33;;;;;;;0.10;0.10;;;13.40;99.90;;;;;;5046751;28;20201;-62
2022/09/25 02:15:04;;;;;;;0.10;0.03;;;13.40;99.90;;;;;;5042888;28;20196;-62
2022/09/25 02:20:32;;;;;;;0.00;0.00;;;13.40;99.90;;;;;;5041418;28;20243;-62
2022/09/25 02:23:15;;;;;;;0.00;0.00;;;13.40;99.90;;;;;;5045928;28;20243;-62
2022/09/25 02:26:03;;;;;;;0.00;0.00;;;13.40;99.90;;;;;;5043956;28;20190;-62
2022/09/25 02:28:29;;;;;;;0.00;0.00;;;13.40;99.90;;;;;;5038834;28;20292;-62
2022/09/25 02:30:58;;;;;;;0.20;0.20;;;13.40;99.90;;;;;;5040433;28;20675;-62
2022/09/25 02:33:25;;;;;;;0.00;0.00;;;13.40;99.90;;;;;;5035068;28;20185;-62
2022/09/25 02:35:51;;;;;;;0.10;0.10;;;13.40;99.90;;;;;;5034925;28;20182;-62
2022/09/25 02:38:16;;;;;;;0.00;0.00;;;13.40;99.90;;;;;;5040956;28;20182;-62
2022/09/25 02:40:52;;;;;;;0.13;0.10;;;13.40;99.90;;;;;;5049093;28;20197;-62
2022/09/25 02:43:44;;;;;;;0.00;0.00;;;13.40;99.90;;;;;;5044679;28;20586;-62
2022/09/25 02:46:33;;;;;;;0.00;0.00;;;13.40;99.90;;;;;;5038497;28;20641;-62
2022/09/25 02:49:15;;;;;;;0.85;0.30;;;13.40;99.90;;;;;;5042042;28;20272;-62
2022/09/25 02:51:51;;;;;;;0.00;0.00;;;13.40;99.90;;;;;;5041499;28;20181;-62
2022/09/25 02:54:32;;;;;;;0.00;0.00;;;13.50;99.90;;;;;;5022155;28;20318;-62
2022/09/25 02:57:18;;;;;;;0.15;0.15;;;13.40;99.90;;;;;;5041210;28;20174;-62
2022/09/25 02:59:51;;;;;;;0.00;0.00;;;13.40;99.90;;;;;;5041031;28;20186;-62
2022/09/25 03:02:19;;;;;;;0.00;0.00;;;13.40;99.90;;;;;;5042131;28;20222;-62
2022/09/25 03:04:47;;;;;;;0.10;0.10;;;13.40;99.90;;;;;;5046699;28;20177;-62
2022/09/25 03:07:15;;;;;;;0.17;0.13;;;13.40;99.90;;;;;;5036737;28;20530;-62
2022/09/25 03:09:45;;;;;;;0.05;0.05;;;13.40;99.90;;;;;;5035306;28;20220;-62
2022/09/25 03:12:11;;;;;;;0.70;0.47;;;13.40;99.90;;;;;;5046260;28;20178;-62
2022/09/25 03:14:37;;;;;;;0.10;0.10;;;13.40;99.90;;;;;;5037664;28;20213;-62
2022/09/25 03:17:04;;;;;;;0.10;0.10;;;13.40;99.90;;;;;;5038890;28;20174;-62
2022/09/25 03:19:30;;;;;;;0.10;0.10;;;13.40;99.90;;;;;;5042156;28;20532;-62
2022/09/25 03:21:56;;;;;;;0.05;0.05;;;13.40;99.90;;;;;;5051506;28;20248;-62
2022/09/25 03:24:22;;;;;;;0.03;0.03;;;13.40;99.90;;;;;;5046298;28;20190;-61
2022/09/25 03:26:47;;;;;;;0.08;0.08;;;13.40;99.90;;;;;;5054160;28;20272;-62
2022/09/25 03:29:15;;;;;;;0.00;0.00;;;13.40;99.90;;;;;;5048796;28;20259;-62
2022/09/25 03:31:41;;;;;;;0.80;0.30;;;13.40;99.90;;;;;;5037548;28;20204;-62
2022/09/25 03:34:07;;;;;;;0.38;0.30;;;13.40;99.90;;;;;;5036051;28;20692;-62
2022/09/25 03:36:35;;;;;;;0.20;0.20;;;13.40;99.90;;;;;;5040255;28;20633;-62
2022/09/25 03:39:00;;;;;;;0.00;0.00;;;13.40;99.90;;;;;;5036711;28;20284;-62
2022/09/25 03:41:29;;;;;;;0.08;0.05;;;13.40;99.90;;;;;;5038104;28;20673;-62
2022/09/25 03:43:56;;;;;;;0.10;0.10;;;13.40;99.90;;;;;;5045990;28;20221;-62
2022/09/25 03:46:24;;;;;;;0.25;0.25;;;13.40;99.90;;;;;;5047381;28;20650;-61
2022/09/25 03:48:51;;;;;;;0.10;0.10;;;13.40;99.90;;;;;;5040177;28;20711;-62
2022/09/25 03:51:17;;;;;;;0.22;0.22;;;13.40;99.90;;;;;;5046894;28;20178;-62
2022/09/25 03:53:43;;;;;;;0.00;0.00;;;13.40;99.90;;;;;;5048523;28;20235;-61
2022/09/25 03:56:12;;;;;;;0.20;0.20;;;13.40;99.90;;;;;;5055139;28;20671;-61
2022/09/25 03:58:38;;;;;;;0.00;0.00;;;13.40;99.90;;;;;;5039272;28;20174;-62
2022/09/25 04:01:05;;;;;;;0.00;0.00;;;13.40;99.90;;;;;;5043831;28;20212;-61
2022/09/25 04:03:32;;;;;;;0.00;0.00;;;13.40;99.90;;;;;;5039179;28;20240;-62
2022/09/25 04:06:00;;;;;;;0.10;0.10;;;13.40;99.90;;;;;;5052776;28;20181;-62
2022/09/25 04:08:27;;;;;;;0.08;0.08;;;13.40;99.90;;;;;;5047945;28;20733;-62
2022/09/25 04:11:00;;;;;;;0.28;0.28;;;13.40;99.90;;;;;;5040661;28;20657;-62
2022/09/25 04:13:28;;;;;;;0.22;0.22;;;13.30;99.90;;;;;;5048652;28;20684;-62
2022/09/25 04:15:55;;;;;;;0.22;0.22;;;13.40;99.90;;;;;;5046582;28;20189;-61
2022/09/25 04:18:21;;;;;;;0.20;0.20;;;13.40;99.90;;;;;;5040324;28;20265;-62
2022/09/25 04:20:47;;;;;;;0.10;0.10;;;13.30;99.90;;;;;;5039499;28;20552;-61
2022/09/25 04:23:13;;;;;;;0.03;0.03;;;13.30;99.90;;;;;;5035552;28;20261;-62
2022/09/25 04:25:38;;;;;;;0.00;0.00;;;13.30;99.90;;;;;;5046699;28;20186;-62
2022/09/25 04:28:06;;;;;;;0.10;0.10;;;13.30;99.90;;;;;;5038595;28;20541;-62
2022/09/25 04:30:32;;;;;;;0.25;0.25;;;13.30;99.90;;;;;;5042076;28;20546;-62
2022/09/25 04:35:42;;;;;;;0.10;0.10;;;13.30;99.90;;;;;;5052417;28;20211;-62
2022/09/25 04:38:08;;;;;;;0.25;0.25;;;13.30;99.90;;;;;;5044161;28;20201;-62
2022/09/25 04:40:34;;;;;;;0.40;0.40;;;13.30;99.90;;;;;;5042338;28;20180;-61
2022/09/25 04:43:02;;;;;;;0.03;0.03;;;13.20;99.90;;;;;;5035550;28;20178;-62
2022/09/25 04:45:29;;;;;;;0.10;0.10;;;13.20;99.90;;;;;;5047410;28;20182;-62
2022/09/25 04:47:57;;;;;;;0.30;0.30;;;13.20;99.90;;;;;;5040507;28;20673;-62
2022/09/25 04:50:24;;;;;;;0.00;0.00;;;13.20;99.90;;;;;;5048310;28;20653;-62
2022/09/25 04:52:50;;;;;;;0.52;0.52;;;13.20;99.90;;;;;;5050030;28;20712;-62
2022/09/25 04:55:21;;;;;;;0.00;0.00;;;13.20;99.90;;;;;;5038371;28;20209;-62
2022/09/25 04:57:54;;;;;;;0.08;0.08;;;13.20;99.90;;;;;;5035666;28;20183;-62
2022/09/25 05:00:20;;;;;;;0.55;0.55;;;13.20;99.90;;;;;;5041993;28;20201;-62
2022/09/25 05:02:46;;;;;;;0.22;0.22;;;13.10;99.90;;;;;;5050464;28;20229;-62
2022/09/25 05:05:13;;;;;;;0.10;0.10;;;13.10;99.90;;;;;;5048184;28;20174;-62
2022/09/25 05:07:39;;;;;;;0.10;0.10;;;13.10;99.90;;;;;;5051843;28;20309;-62
2022/09/25 05:10:07;;;;;;;0.08;0.08;;;13.10;99.90;;;;;;5033755;28;20364;-62
2022/09/25 05:12:35;;;;;;;0.10;0.10;;;13.10;99.90;;;;;;5042259;28;20173;-62
2022/09/25 05:15:01;;;;;;;0.00;0.00;;;13.10;99.90;;;;;;5041655;28;20704;-61
2022/09/25 05:17:26;;;;;;;0.10;0.10;;;13.10;99.90;;;;;;5052640;28;20180;-62
2022/09/25 05:19:52;;;;;;;0.80;0.45;;;13.10;99.90;;;;;;5036865;28;20178;-62
2022/09/25 05:22:17;;;;;;;0.05;0.05;;;13.10;99.90;;;;;;5039663;28;20186;-62
2022/09/25 05:24:43;;;;;;;0.20;0.20;;;13.00;99.90;;;;;;5034530;28;20229;-62
2022/09/25 05:27:08;;;;;;;0.20;0.20;;;13.00;99.90;;;;;;5047602;28;20743;-62
2022/09/25 05:29:34;;;;;;;0.10;0.10;;;13.00;99.90;;;;;;5047629;28;20209;-62
2022/09/25 05:31:59;;;;;;;0.05;0.05;;;13.00;99.90;;;;;;5034441;28;20184;-62
2022/09/25 05:34:25;;;;;;;0.13;0.13;;;13.00;99.90;;;;;;5044079;28;20185;-61
2022/09/25 05:36:51;;;;;;;0.15;0.15;;;13.00;99.90;;;;;;5048302;28;20201;-61
2022/09/25 05:39:17;;;;;;;0.38;0.38;;;13.00;99.90;;;;;;5033393;28;20637;-62
2022/09/25 05:41:42;;;;;;;0.47;0.20;;;13.00;99.90;;;;;;5047560;28;20190;-62
2022/09/25 05:44:08;;;;;;;0.20;0.20;;;13.00;99.90;;;;;;5050263;28;20653;-62
2022/09/25 05:46:36;;;;;;;0.30;0.30;;;13.00;99.90;;;;;;5044581;28;20221;-62
2022/09/25 05:49:03;;;;;;;0.08;0.00;;;13.00;99.90;;;;;;5033172;28;20222;-61
2022/09/25 05:51:28;;;;;;;0.00;0.00;;;13.00;99.90;;;;;;5034409;28;20715;-61
2022/09/25 05:53:54;;;;;;;0.00;0.00;;;13.00;99.90;;;;;;5038602;28;20178;-62
2022/09/25 05:56:21;;;;;;;0.00;0.00;;;13.00;99.90;;;;;;5045469;28;20181;-62
2022/09/25 05:58:48;;;;;;;0.20;0.20;;;13.00;99.90;;;;;;5049937;28;20181;-62
2022/09/25 06:01:13;;;;;;;0.00;0.00;;;13.00;99.90;;;;;;5050050;28;20212;-61
2022/09/25 06:03:39;;;;;;;0.00;0.00;;;13.00;99.90;;;;;;5052426;28;20249;-61
2022/09/25 06:06:05;;;;;;;0.32;0.20;;;12.90;99.90;;;;;;5040363;28;20205;-61
2022/09/25 06:08:31;;;;;;;0.00;0.00;;;12.90;99.90;;;;;;5047867;28;20190;-61
2022/09/25 06:10:57;;;;;;;0.30;0.30;;;12.80;99.90;;;;;;5052858;28;20653;-61
2022/09/25 06:13:26;;;;;;;0.10;0.10;;;12.90;99.90;;;;;;5050013;28;20189;-61
2022/09/25 06:15:52;;;;;;;0.00;0.00;;;12.90;99.90;;;;;;5046678;28;20186;-61
2022/09/25 06:18:20;;;;;;;0.00;0.00;;;12.90;99.90;;;;;;5040394;28;20181;-61
2022/09/25 06:20:46;;;;;;;0.00;0.00;;;12.90;99.90;;;;;;5049943;28;20196;-61
2022/09/25 06:23:12;;;;;;;0.30;0.30;;;12.90;99.90;;;;;;5045397;28;20178;-62
2022/09/25 06:25:37;;;;;;;0.00;0.00;;;12.90;99.90;;;;;;5036523;28;20169;-62
2022/09/25 06:28:04;;;;;;;0.43;0.43;;;12.90;99.90;;;;;;5043017;28;20213;-62
2022/09/25 06:30:33;;;;;;;0.10;0.10;;;12.90;99.90;;;;;;5037392;28;20264;-62
2022/09/25 06:33:12;;;;;;;0.00;0.00;;;12.80;99.90;;;;;;5034917;28;20181;-62
2022/09/25 06:35:42;;;;;;;0.10;0.10;;;12.80;99.90;;;;;;5029189;28;20181;-62
2022/09/25 06:38:08;;;;;;;0.20;0.20;;;12.80;99.90;;;;;;5051260;28;20181;-62
2022/09/25 06:40:36;;;;;;;0.05;0.05;;;12.80;99.90;;;;;;5012170;28;20529;-62
2022/09/25 06:43:03;;;;;;;0.00;0.00;;;12.80;99.90;;;;;;5034592;28;20184;-63
2022/09/25 06:45:32;;;;;;;0.00;0.00;;;12.80;99.90;;;;;;5049368;28;20181;-62
2022/09/25 06:48:17;;;;;;;0.15;0.15;;;12.80;99.90;;;;;;5046756;28;20206;-62
2022/09/25 06:50:52;;;;;;;0.10;0.10;;;12.80;99.90;;;;;;5032299;28;20220;-62
2022/09/25 06:53:19;;;;;;;0.55;0.20;;;12.80;99.90;;;;;;5041175;28;20177;-63
2022/09/25 06:55:45;;;;;;;0.00;0.00;;;12.80;99.90;;;;;;5041663;28;20521;-62
2022/09/25 06:58:22;;;;;;;0.00;0.00;;;12.80;99.90;;;;;;5015610;28;20272;-61
2022/09/25 07:00:49;;;;;;;0.20;0.20;;;12.80;99.90;;;;;;5029287;28;20671;-64
2022/09/25 07:06:00;;;;;;;0.25;0.10;;;12.80;99.90;;;;;;5041923;28;20192;-64
2022/09/25 07:08:26;;;;;;;0.30;0.20;;;12.80;99.90;;;;;;5033517;28;20213;-63
2022/09/25 07:10:54;;;;;;;0.00;0.00;;;12.90;99.90;;;;;;5047189;28;20640;-63
2022/09/25 07:13:25;;;;;;;0.00;0.00;;;12.90;99.90;;;;;;5051987;28;20177;-62
2022/09/25 07:16:10;;;;;;;0.10;0.10;;;12.90;99.90;;;;;;5038688;28;20224;-61
2022/09/25 07:18:35;;;;;;;0.00;0.00;;;12.90;99.90;;;;;;5023030;28;20204;-63
2022/09/25 07:21:02;;;;;;;0.10;0.10;;;13.00;99.90;;;;;;5038805;28;20217;-61
2022/09/25 07:23:30;;;;;;;0.08;0.08;;;13.00;99.90;;;;;;5043004;28;20240;-59
2022/09/25 07:25:57;;;;;;;0.65;0.57;;;13.10;99.90;;;;;;5046069;28;20608;-62
2022/09/25 07:28:22;;;;;;;0.00;0.00;;;13.20;99.90;;;;;;5035384;28;20206;-61
2022/09/25 07:30:48;;;;;;;0.00;0.00;;;13.20;99.90;;;;;;5048914;28;20301;-64
2022/09/25 07:33:14;;;;;;;0.20;0.20;;;13.30;99.90;;;;;;5043223;28;20221;-60
2022/09/25 07:35:39;;;;;;;0.05;0.05;;;13.30;99.90;;;;;;5040246;28;20177;-59
2022/09/25 07:38:05;;;;;;;0.13;0.13;;;13.40;99.90;;;;;;5038314;28;20228;-61
2022/09/25 07:40:34;;;;;;;0.22;0.20;;;13.40;99.90;;;;;;5042484;28;20181;-62
2022/09/25 07:43:03;;;;;;;0.52;0.52;;;13.50;99.90;;;;;;5046532;28;20707;-63
2022/09/25 07:45:30;;;;;;;0.20;0.20;;;13.50;99.90;;;;;;5049173;28;20184;-63
2022/09/25 07:48:00;;;;;;;0.32;0.30;;;13.40;99.90;;;;;;5043944;28;20178;-64
2022/09/25 07:50:30;;;;;;;0.00;0.00;;;13.30;99.90;;;;;;5032891;28;20185;-64
2022/09/25 07:52:56;;;;;;;0.20;0.20;;;13.20;99.90;;;;;;5031604;28;20170;-63
2022/09/25 07:55:22;;;;;;;0.00;0.00;;;13.10;99.90;;;;;;5030056;28;20182;-62
2022/09/25 07:57:49;;;;;;;0.17;0.17;;;13.10;99.90;;;;;;5031645;28;20244;-63
2022/09/25 08:00:15;;;;;;;0.00;0.00;;;13.00;99.90;;;;;;5033523;28;20182;-63
2022/09/25 08:02:41;;;;;;;0.00;0.00;;;13.00;99.90;;;;;;5035177;28;20285;-62
2022/09/25 08:05:07;;;;;;;0.00;0.00;;;13.00;99.90;;;;;;5035111;28;20178;-63
2022/09/25 08:07:33;;;;;;;0.20;0.20;;;13.10;99.90;;;;;;5035011;28;20182;-64
2022/09/25 08:09:58;;;;;;;0.00;0.00;;;13.10;99.90;;;;;;5034788;28;20209;-63
2022/09/25 08:12:24;;;;;;;0.10;0.10;;;13.20;99.90;;;;;;5046848;28;20196;-63
2022/09/25 08:14:51;;;;;;;0.00;0.00;;;13.30;99.90;;;;;;5043527;28;20189;-63
2022/09/25 08:17:18;;;;;;;0.00;0.00;;;13.40;99.90;;;;;;5037161;28;20719;-63
2022/09/25 08:19:44;;;;;;;0.50;0.28;;;13.50;99.90;;;;;;5043039;28;20644;-63
2022/09/25 08:22:10;;;;;;;0.05;0.05;;;13.60;99.90;;;;;;5034680;28;20622;-63
2022/09/25 08:24:36;;;;;;;0.32;0.08;;;13.80;99.90;;;;;;5043245;28;20188;-63
2022/09/25 08:27:02;;;;;;;0.00;0.00;;;13.90;99.90;;;;;;5038124;28;20615;-63
2022/09/25 08:29:28;;;;;;;0.10;0.10;;;14.00;99.90;;;;;;5034421;28;20676;-63
2022/09/25 08:31:54;;;;;;;0.20;0.20;;;14.00;99.90;;;;;;5034613;28;20201;-64
2022/09/25 08:34:20;;;;;;;0.00;0.00;;;14.10;99.90;;;;;;5045550;28;20271;-64
2022/09/25 08:36:48;;;;;;;0.10;0.10;;;14.20;99.90;;;;;;5034709;28;20185;-63
2022/09/25 08:39:14;;;;;;;0.00;0.00;;;14.30;99.90;;;;;;5036289;28;20182;-63
2022/09/25 08:41:52;;;;;;;0.00;0.00;;;14.30;99.90;;;;;;5054201;28;20188;-63
2022/09/25 08:44:34;;;;;;;0.03;0.03;;;14.20;99.90;;;;;;5052692;28;20174;-64
2022/09/25 08:50:13;;;;;;;0.17;0.17;;;14.10;99.90;;;;;;5051999;28;20590;-63
2022/09/25 08:52:43;;;;;;;0.00;0.00;;;14.10;99.90;;;;;;5054264;28;20215;-64
2022/09/25 08:55:16;;;;;;;0.00;0.00;;;14.10;99.90;;;;;;5053798;28;20227;-64
2022/09/25 08:57:44;;;;;;;0.00;0.00;;;14.20;99.90;;;;;;5041150;28;20190;-64
2022/09/25 09:00:19;;;;;;;0.00;0.00;;;14.30;99.90;;;;;;5036790;28;20174;-64
2022/09/25 09:02:53;;;;;;;0.00;0.00;;;14.40;99.90;;;;;;5021862;28;20225;-64
2022/09/25 09:05:33;;;;;;;0.10;0.10;;;14.40;99.90;;;;;;5043163;28;20200;-64
2022/09/25 09:08:14;;;;;;;0.00;0.00;;;14.40;99.90;;;;;;5033950;28;20649;-63
2022/09/25 09:10:43;;;;;;;0.00;0.00;;;14.40;99.90;;;;;;5027151;28;20182;-64
2022/09/25 09:13:15;;;;;;;0.00;0.00;;;14.40;99.90;;;;;;5040897;28;20232;-64
2022/09/25 09:15:53;;;;;;;0.00;0.00;;;14.30;99.90;;;;;;5034999;28;20182;-63
2022/09/25 09:18:24;;;;;;;0.00;0.00;;;14.40;99.90;;;;;;5038232;28;20292;-64
2022/09/25 09:20:56;;;;;;;0.00;0.00;;;14.40;99.90;;;;;;5044841;28;20530;-64
2022/09/25 09:23:23;;;;;;;0.00;0.00;;;14.50;99.90;;;;;;5038787;28;20257;-64
2022/09/25 09:25:55;;;;;;;0.00;0.00;;;14.40;99.90;;;;;;5033415;28;20193;-64
2022/09/25 09:28:47;;;;;;;0.00;0.00;;;14.30;99.90;;;;;;5036106;28;20206;-64
2022/09/25 09:31:12;;;;;;;0.10;0.10;;;14.20;99.90;;;;;;5032240;28;20261;-64
2022/09/25 09:33:54;;;;;;;0.03;0.03;;;14.20;99.90;;;;;;5033410;28;20324;-64
2022/09/25 09:37:02;;;;;;;0.00;0.00;;;14.20;99.90;;;;;;5026636;28;20182;-65
2022/09/25 09:39:33;;;;;;;0.10;0.10;;;14.20;99.90;;;;;;5040014;28;20763;-64
2022/09/25 09:42:08;;;;;;;0.00;0.00;;;14.20;99.90;;;;;;5038373;28;20193;-64
2022/09/25 09:45:09;;;;;;;0.15;0.10;;;14.30;99.90;;;;;;5049973;28;20180;-63
2022/09/25 09:48:00;;;;;;;0.00;0.00;;;14.40;99.90;;;;;;5037495;28;20532;-63
2022/09/25 09:50:37;;;;;;;0.00;0.00;;;14.70;99.90;;;;;;5033224;28;20186;-63
2022/09/25 09:53:12;;;;;;;0.00;0.00;;;14.80;99.90;;;;;;5019495;28;20232;-64
2022/09/25 09:55:43;;;;;;;0.05;0.05;;;15.00;99.90;;;;;;5035809;28;20188;-64
2022/09/25 09:58:27;;;;;;;0.00;0.00;;;15.10;99.90;;;;;;5051712;28;20178;-62
2022/09/25 10:00:54;;;;;;;0.00;0.00;;;15.40;99.90;;;;;;5034737;28;20196;-63
2022/09/25 10:03:28;;;;;;;0.00;0.00;;;15.80;99.90;;;;;;5032811;28;20638;-63
2022/09/25 10:05:57;;;;;;;0.00;0.00;;;16.00;99.90;;;;;;5033054;28;20221;-63
2022/09/25 10:08:23;;;;;;;0.63;0.30;;;16.20;99.90;;;;;;5032667;28;20202;-63
2022/09/25 10:10:52;;;;;;;0.00;0.00;;;16.40;99.90;;;;;;5032995;28;20228;-63
2022/09/25 10:13:25;;;;;;;0.30;0.25;;;16.50;99.90;;;;;;5032729;28;20185;-63
2022/09/25 10:15:59;;;;;;;0.03;0.03;;;16.50;99.90;;;;;;5032949;28;20695;-63
2022/09/25 10:18:37;;;;;;;0.00;0.00;;;16.50;99.90;;;;;;5032560;28;20186;-63
2022/09/25 10:21:12;;;;;;;0.00;0.00;;;16.50;99.90;;;;;;5032684;28;20170;-63
2022/09/25 10:23:45;;;;;;;0.00;0.00;;;16.80;99.90;;;;;;5031947;28;20597;-63
2022/09/25 10:26:35;;;;;;;0.00;0.00;;;17.10;99.90;;;;;;5031433;28;20535;-63
2022/09/25 10:29:03;;;;;;;0.00;0.00;;;17.40;99.90;;;;;;5032524;28;20245;-63
2022/09/25 10:31:34;;;;;;;0.00;0.00;;;17.60;99.90;;;;;;5032478;28;20300;-63
2022/09/25 10:34:16;;;;;;;0.10;0.10;;;17.60;99.90;;;;;;5032525;28;20189;-63
2022/09/25 10:36:47;;;;;;;0.00;0.00;;;17.60;99.90;;;;;;5032367;28;20174;-63
2022/09/25 10:39:33;;;;;;;0.00;0.00;;;17.50;99.90;;;;;;5032447;28;20178;-63
2022/09/25 10:42:00;;;;;;;0.00;0.00;;;17.50;99.90;;;;;;5032198;28;20178;-63
2022/09/25 10:44:34;;;;;;;0.00;0.00;;;17.60;99.90;;;;;;5032248;28;20200;-63
2022/09/25 10:50:23;;;;;;;0.00;0.00;;;17.70;99.90;;;;;;5049791;28;20284;-63
2022/09/25 10:52:57;;;;;;;0.00;0.00;;;18.00;99.90;;;;;;5033008;28;20649;-63
2022/09/25 10:55:29;;;;;;;0.00;0.00;;;18.20;99.90;;;;;;5031984;28;20633;-63
2022/09/25 10:58:09;;;;;;;0.43;0.43;;;18.40;99.90;;;;;;5031985;28;20174;-63
2022/09/25 11:00:52;;;;;;;0.00;0.00;;;18.50;99.90;;;;;;5032034;28;20181;-63
2022/09/25 11:03:26;;;;;;;0.05;0.05;;;18.70;99.90;;;;;;5031797;28;20251;-63
2022/09/25 11:06:19;;;;;;;0.00;0.00;;;18.80;99.90;;;;;;5032177;28;20176;-63
2022/09/25 11:08:48;;;;;;;0.00;0.00;;;18.70;99.90;;;;;;5033703;28;20225;-63
2022/09/25 11:11:20;;;;;;;0.00;0.00;;;18.60;99.90;;;;;;5031968;28;20170;-63
2022/09/25 11:13:52;;;;;;;0.00;0.00;;;18.60;99.90;;;;;;5031992;28;20257;-63
2022/09/25 11:16:19;;;;;;;0.10;0.10;;;18.60;99.90;;;;;;5031920;28;20205;-61
2022/09/25 11:18:50;;;;;;;0.00;0.00;;;18.70;99.90;;;;;;5031845;28;20236;-60
2022/09/25 11:21:20;;;;;;;0.10;0.10;;;18.80;99.90;;;;;;5031854;28;20261;-60
2022/09/25 11:24:14;;;;;;;0.00;0.00;;;18.80;99.90;;;;;;5032004;28;20233;-60
2022/09/25 11:26:47;;;;;;;0.00;0.00;;;18.70;99.90;;;;;;5032044;28;20635;-60
2022/09/25 11:29:38;;;;;;;0.10;0.10;;;18.50;99.90;;;;;;5031769;28;20214;-60
2022/09/25 11:32:45;;;;;;;0.08;0.00;;;18.40;99.90;;;;;;5031622;28;20652;-61
2022/09/25 11:35:37;;;;;;;0.03;0.03;;;18.20;99.90;;;;;;5035019;28;20189;-61
2022/09/25 11:41:29;;;;;;;0.00;0.00;;;18.10;99.90;;;;;;5035834;28;20551;-60
2022/09/25 11:44:11;;;;;;;0.03;0.00;;;18.10;99.90;;;;;;5035690;28;20178;-61
2022/09/25 11:47:23;;;;;;;0.22;0.22;;;18.10;99.90;;;;;;5035614;28;20186;-61
2022/09/25 11:49:52;;;;;;;0.00;0.00;;;18.20;99.90;;;;;;5035312;28;20315;-61
2022/09/25 11:52:29;;;;;;;0.00;0.00;;;18.10;99.90;;;;;;5035303;28;20185;-62
2022/09/25 11:55:16;;;;;;;0.00;0.00;;;17.90;99.90;;;;;;5035460;28;20173;-62
2022/09/25 11:58:08;;;;;;;0.55;0.15;;;17.90;99.90;;;;;;5035334;28;20249;-62
2022/09/25 12:01:18;;;;;;;0.00;0.00;;;17.80;99.90;;;;;;5035441;28;20200;-62
2022/09/25 12:04:06;;;;;;;0.00;0.00;;;17.90;99.90;;;;;;5035052;28;20240;-62
2022/09/25 12:06:52;;;;;;;0.05;0.05;;;17.80;99.90;;;;;;5035302;28;20276;-62
2022/09/25 12:09:48;;;;;;;0.00;0.00;;;17.90;99.90;;;;;;5034970;28;20224;-62
2022/09/25 12:12:23;;;;;;;0.00;0.00;;;18.00;99.90;;;;;;5035029;28;20201;-62
2022/09/25 12:15:04;;;;;;;0.08;0.08;;;18.00;99.90;;;;;;5035126;28;20272;-61
2022/09/25 12:17:41;;;;;;;0.00;0.00;;;18.10;99.90;;;;;;5034914;28;20169;-62
2022/09/25 12:20:29;;;;;;;0.00;0.00;;;18.20;99.90;;;;;;5035032;28;20170;-62
2022/09/25 12:23:12;;;;;;;0.00;0.00;;;18.30;99.90;;;;;;5035206;28;20265;-62
2022/09/25 12:26:14;;;;;;;0.00;0.00;;;18.40;99.90;;;;;;5034820;28;20275;-62
2022/09/25 12:28:54;;;;;;;0.00;0.00;;;18.70;99.90;;;;;;5034742;28;20282;-62
2022/09/25 12:31:44;;;;;;;0.00;0.00;;;18.90;99.90;;;;;;5034530;28;20276;-62
2022/09/25 12:34:40;;;;;;;0.10;0.10;;;19.20;99.90;;;;;;5034565;28;20221;-62
2022/09/25 12:37:30;;;;;;;0.00;0.00;;;19.30;99.90;;;;;;5034618;28;20182;-62
2022/09/25 12:39:59;;;;;;;0.00;0.00;;;19.20;99.90;;;;;;5034729;28;20197;-62
2022/09/25 12:42:43;;;;;;;0.00;0.00;;;19.00;99.90;;;;;;5034465;28;20178;-62
2022/09/25 12:45:18;;;;;;;0.30;0.15;;;19.00;99.90;;;;;;5033896;28;20265;-62
2022/09/25 12:48:08;;;;;;;0.00;0.00;;;18.90;99.90;;;;;;5034686;28;20601;-62
2022/09/25 12:50:58;;;;;;;0.00;0.00;;;18.80;99.90;;;;;;5042715;28;20237;-62
2022/09/25 12:53:44;;;;;;;0.10;0.10;;;18.90;99.90;;;;;;5034144;28;20185;-62
2022/09/25 12:56:23;;;;;;;0.00;0.00;;;19.00;99.90;;;;;;5033302;28;20575;-61
2022/09/25 12:59:14;;;;;;;0.10;0.10;;;19.00;99.90;;;;;;5034410;28;20174;-62
2022/09/25 13:01:52;;;;;;;0.03;0.03;;;19.00;99.90;;;;;;5034126;28;20186;-62
2022/09/25 13:04:33;;;;;;;0.00;0.00;;;19.10;99.90;;;;;;5033950;28;20229;-62
2022/09/25 13:07:27;;;;;;;0.00;0.00;;;19.30;99.90;;;;;;5034141;28;20178;-62
2022/09/25 13:09:53;;;;;;;0.20;0.20;;;19.20;99.90;;;;;;5034065;28;20221;-62
2022/09/25 13:12:36;;;;;;;0.00;0.00;;;19.10;99.90;;;;;;5033944;28;20522;-62
2022/09/25 13:15:10;;;;;;;0.00;0.00;;;19.00;99.90;;;;;;5033888;28;20186;-62
2022/09/25 13:17:37;;;;;;;0.00;0.00;;;19.10;99.90;;;;;;5033772;28;20240;-62
2022/09/25 13:20:28;;;;;;;0.00;0.00;;;19.30;99.90;;;;;;5033754;28;20201;-62
2022/09/25 13:23:15;;;;;;;0.00;0.00;;;19.50;99.90;;;;;;5033779;28;20221;-62
2022/09/25 13:25:47;;;;;;;0.00;0.00;;;19.50;99.90;;;;;;5033742;28;20189;-62
2022/09/25 13:28:25;;;;;;;0.00;0.00;;;19.40;99.90;;;;;;5033723;28;20181;-62
2022/09/25 13:31:05;;;;;;;0.00;0.00;;;19.30;99.90;;;;;;5033621;28;20265;-62
2022/09/25 13:33:51;;;;;;;0.10;0.10;;;19.20;99.90;;;;;;5033742;28;20231;-62